Suburb Maryland Fac, Maryland
Current Conditions -  °F | °C
As of 5:15 AM on Monday 26 Jan 2015 (Local Time) from KGAI Reporting Station
Overcast Overcast  
Wind Chill: 26°   Ceiling: 600
Heat Index: 34°   Visibility: 5mi
Dew Point: 30°   Wind: 9mph
Humidity: 87%   Direction: 90°E
Pressure: 29.82"   Gusts: 16mph
Location:  39.0876°N, 77.0578°W
Report Text: KGAI 261015Z 09008G14KT 5SM OVC006 01/M01 A2982 RMK AO1 P0001
Loading
Personal Weather Stations






























Interactive Weather Map New forecast layout! Learn more

10-Day Weather Forecast

Advertisements
Track Severe Weather on mobile